Time;durP1;ratioP1;P1;durP2;ratioP2;P2;SDS_P1;SDS_P2;PMS_P1;PMS_P2;Temp;Humidity;BMP_temperature;BMP_pressure;BME280_temperature;BME280_humidity;BME280_pressure;Samples;Min_cycle;Max_cycle;Signal;HPM_P1;HPM_P2
2021/12/27 00:01:17;;;;;;;15.00;6.88;;;8.60;99.90;;;;;;4999192;28;20038;-49
2021/12/27 00:03:43;;;;;;;15.85;6.88;;;8.60;99.90;;;;;;5004122;28;20420;-50
2021/12/27 00:06:12;;;;;;;17.35;7.90;;;8.60;99.90;;;;;;5000594;28;20061;-50
2021/12/27 00:08:41;;;;;;;15.38;7.15;;;8.50;99.90;;;;;;5002897;28;20103;-49
2021/12/27 00:11:09;;;;;;;12.65;5.60;;;8.60;99.90;;;;;;5000374;28;20080;-50
2021/12/27 00:13:34;;;;;;;15.73;6.72;;;8.60;99.90;;;;;;5000834;28;20081;-50
2021/12/27 00:16:00;;;;;;;16.00;7.05;;;8.50;99.90;;;;;;4996945;28;20034;-50
2021/12/27 00:18:26;;;;;;;12.52;5.88;;;8.60;99.90;;;;;;4999126;28;20281;-50
2021/12/27 00:20:52;;;;;;;16.95;7.47;;;8.60;99.90;;;;;;4998790;28;20019;-50
2021/12/27 00:23:17;;;;;;;19.25;7.10;;;8.60;99.90;;;;;;4996700;28;20377;-49
2021/12/27 00:25:43;;;;;;;14.85;6.90;;;8.50;99.90;;;;;;5002609;28;20084;-50
2021/12/27 00:28:08;;;;;;;16.83;7.50;;;8.60;99.90;;;;;;4998484;28;20030;-50
2021/12/27 00:30:34;;;;;;;18.17;7.45;;;8.60;99.90;;;;;;4999461;28;20054;-50
2021/12/27 00:33:00;;;;;;;19.60;8.82;;;8.50;99.90;;;;;;4996942;28;20392;-50
2021/12/27 00:35:28;;;;;;;18.33;7.85;;;8.60;99.90;;;;;;5002107;28;20065;-50
2021/12/27 00:37:54;;;;;;;18.20;7.15;;;8.60;99.90;;;;;;4999114;28;20034;-50
2021/12/27 00:40:19;;;;;;;13.05;7.32;;;8.50;99.90;;;;;;5001210;28;20350;-50
2021/12/27 00:42:45;;;;;;;17.25;7.63;;;8.60;99.90;;;;;;4997767;28;20379;-50
2021/12/27 00:45:11;;;;;;;17.30;7.70;;;8.60;99.90;;;;;;5000459;28;20415;-50
2021/12/27 00:47:38;;;;;;;13.50;4.90;;;8.50;99.90;;;;;;5002778;28;20113;-50
2021/12/27 00:50:05;;;;;;;16.33;7.28;;;8.60;99.90;;;;;;5001907;28;20048;-50
2021/12/27 00:52:32;;;;;;;13.43;6.63;;;8.60;99.90;;;;;;4996942;28;20034;-50
2021/12/27 00:54:59;;;;;;;13.40;6.75;;;8.60;99.90;;;;;;4996625;28;20057;-49
2021/12/27 00:57:24;;;;;;;16.17;6.60;;;8.60;99.90;;;;;;5003565;28;20492;-50
2021/12/27 00:59:50;;;;;;;15.88;7.25;;;8.60;99.90;;;;;;5001776;28;20034;-50
2021/12/27 01:02:16;;;;;;;15.60;7.00;;;8.60;99.90;;;;;;5002760;28;20413;-50
2021/12/27 01:04:42;;;;;;;11.65;6.35;;;8.60;99.90;;;;;;4997496;28;20117;-49
2021/12/27 01:07:07;;;;;;;13.68;6.80;;;8.60;99.90;;;;;;5000432;28;20088;-50
2021/12/27 01:09:53;;;;;;;13.77;6.05;;;8.60;99.90;;;;;;4998197;28;20026;-53
2021/12/27 01:12:32;;;;;;;12.43;5.13;;;8.60;99.90;;;;;;4996981;28;20451;-50
2021/12/27 01:15:33;;;;;;;12.18;4.75;;;8.60;99.90;;;;;;5001501;28;20030;-50
2021/12/27 01:17:56;;;;;;;9.07;3.85;;;8.60;99.90;;;;;;4998691;28;20034;-50
2021/12/27 01:20:23;;;;;;;10.02;4.32;;;8.60;99.90;;;;;;4997777;28;20034;-51
2021/12/27 01:22:50;;;;;;;10.10;4.72;;;8.60;99.90;;;;;;4998526;28;20117;-49
2021/12/27 01:25:17;;;;;;;9.73;4.80;;;8.60;99.90;;;;;;5003067;28;20624;-50
2021/12/27 01:27:44;;;;;;;9.27;4.72;;;8.60;99.90;;;;;;5003354;28;20037;-50
2021/12/27 01:30:15;;;;;;;9.48;4.93;;;8.60;99.90;;;;;;5005906;28;20030;-50
2021/12/27 01:32:47;;;;;;;8.98;4.13;;;8.60;99.90;;;;;;5002470;28;20034;-50
2021/12/27 01:35:13;;;;;;;8.85;4.97;;;8.60;99.90;;;;;;5004572;28;20045;-50
2021/12/27 01:37:40;;;;;;;7.00;3.78;;;8.60;99.90;;;;;;5000942;28;20026;-50
2021/12/27 01:40:07;;;;;;;8.15;4.32;;;8.60;99.90;;;;;;4998538;28;20038;-50
2021/12/27 01:42:32;;;;;;;6.65;4.28;;;8.60;99.90;;;;;;5001665;28;20033;-50
2021/12/27 01:44:58;;;;;;;9.38;4.63;;;8.60;99.90;;;;;;5005027;28;20029;-50
2021/12/27 01:47:24;;;;;;;10.77;5.03;;;8.60;99.90;;;;;;5001434;28;20049;-49
2021/12/27 01:49:49;;;;;;;10.90;5.22;;;8.60;99.90;;;;;;5003128;28;20065;-50
2021/12/27 01:52:15;;;;;;;8.35;3.58;;;8.60;99.90;;;;;;4999136;28;20465;-50
2021/12/27 01:54:41;;;;;;;7.82;4.00;;;8.60;99.90;;;;;;5003255;28;20041;-49
2021/12/27 01:57:07;;;;;;;8.50;4.57;;;8.60;99.90;;;;;;4999859;28;20449;-50
2021/12/27 01:59:32;;;;;;;10.05;4.90;;;8.60;99.90;;;;;;5000629;28;20134;-50
2021/12/27 02:01:58;;;;;;;11.23;6.20;;;8.60;99.90;;;;;;5005296;28;20129;-50
2021/12/27 02:04:24;;;;;;;6.38;3.85;;;8.60;99.90;;;;;;5001499;28;20033;-49
2021/12/27 02:06:50;;;;;;;10.25;5.00;;;8.60;99.90;;;;;;5002616;28;20373;-50
2021/12/27 02:09:20;;;;;;;7.85;3.60;;;8.60;99.90;;;;;;5002851;28;20026;-50
2021/12/27 02:11:47;;;;;;;6.95;3.85;;;8.60;99.90;;;;;;4998535;28;20042;-50
2021/12/27 02:14:12;;;;;;;8.30;4.70;;;8.60;99.90;;;;;;5007180;28;20073;-50
2021/12/27 02:16:38;;;;;;;4.53;3.10;;;8.60;99.90;;;;;;5001570;28;20061;-50
2021/12/27 02:19:04;;;;;;;6.82;4.07;;;8.60;99.90;;;;;;5001371;28;20089;-49
2021/12/27 02:21:30;;;;;;;9.05;4.10;;;8.60;99.90;;;;;;4998841;28;20041;-50
2021/12/27 02:23:57;;;;;;;9.95;4.25;;;8.60;99.90;;;;;;4998329;28;20061;-50
2021/12/27 02:26:23;;;;;;;8.98;4.30;;;8.60;99.90;;;;;;5004481;28;20109;-50
2021/12/27 02:28:49;;;;;;;6.97;3.33;;;8.60;99.90;;;;;;5000055;28;20023;-50
2021/12/27 02:31:16;;;;;;;9.63;3.83;;;8.60;99.90;;;;;;5002947;28;20124;-50
2021/12/27 02:33:44;;;;;;;5.95;3.85;;;8.60;99.90;;;;;;5000081;28;20416;-50
2021/12/27 02:36:11;;;;;;;5.45;3.33;;;8.60;99.90;;;;;;5004891;28;20029;-50
2021/12/27 02:38:41;;;;;;;6.72;4.10;;;8.60;99.90;;;;;;5004390;28;20042;-50
2021/12/27 02:41:08;;;;;;;6.28;3.90;;;8.60;99.90;;;;;;5004240;28;20056;-49
2021/12/27 02:43:35;;;;;;;4.75;2.95;;;8.60;99.90;;;;;;5003234;28;20034;-49
2021/12/27 02:46:08;;;;;;;4.70;3.17;;;8.60;99.90;;;;;;5002369;28;20030;-50
2021/12/27 02:48:41;;;;;;;6.22;3.55;;;8.60;99.90;;;;;;5000157;28;20026;-50
2021/12/27 02:51:07;;;;;;;5.28;3.88;;;8.60;99.90;;;;;;5003138;28;20323;-50
2021/12/27 02:53:34;;;;;;;7.57;4.40;;;8.60;99.90;;;;;;5004362;28;20432;-50
2021/12/27 02:56:01;;;;;;;8.32;4.88;;;8.60;99.90;;;;;;4999045;28;20042;-51
2021/12/27 02:58:28;;;;;;;7.03;3.95;;;8.60;99.90;;;;;;5004032;28;20477;-49
2021/12/27 03:00:58;;;;;;;7.43;4.10;;;8.60;99.90;;;;;;5001254;28;20046;-50
2021/12/27 03:03:23;;;;;;;7.97;4.35;;;8.60;99.90;;;;;;5005027;28;20067;-50
2021/12/27 03:05:50;;;;;;;9.23;5.32;;;8.60;99.90;;;;;;5000969;28;20060;-50
2021/12/27 03:08:17;;;;;;;8.85;4.30;;;8.60;99.90;;;;;;5003818;28;20030;-50
2021/12/27 03:10:47;;;;;;;8.40;5.20;;;8.60;99.90;;;;;;5000092;28;20025;-50
2021/12/27 03:13:22;;;;;;;7.00;4.50;;;8.60;99.90;;;;;;5002362;28;20121;-50
2021/12/27 03:16:02;;;;;;;11.50;4.43;;;8.60;99.90;;;;;;5005552;28;20515;-50
2021/12/27 03:18:29;;;;;;;7.18;4.20;;;8.60;99.90;;;;;;5000593;28;20056;-50
2021/12/27 03:20:56;;;;;;;6.85;4.43;;;8.60;99.90;;;;;;5001408;28;20051;-50
2021/12/27 03:23:22;;;;;;;7.60;5.07;;;8.60;99.90;;;;;;5002577;28;20112;-50
2021/12/27 03:25:48;;;;;;;8.07;4.72;;;8.60;99.90;;;;;;5002221;28;20449;-50
2021/12/27 03:28:14;;;;;;;7.65;4.35;;;8.60;99.90;;;;;;4998835;28;20088;-50
2021/12/27 03:30:40;;;;;;;7.90;3.95;;;8.60;99.90;;;;;;5002764;28;20026;-50
2021/12/27 03:33:08;;;;;;;7.63;4.53;;;8.60;99.90;;;;;;4996963;28;20104;-50
2021/12/27 03:35:39;;;;;;;8.05;4.57;;;8.60;99.90;;;;;;5001677;28;20096;-50
2021/12/27 03:38:08;;;;;;;10.80;4.65;;;8.60;99.90;;;;;;4998732;28;20031;-50
2021/12/27 03:40:34;;;;;;;8.13;4.53;;;8.60;99.90;;;;;;4994711;28;20088;-49
2021/12/27 03:43:00;;;;;;;13.32;4.15;;;8.60;99.90;;;;;;4998630;28;20062;-49
2021/12/27 03:45:33;;;;;;;7.15;4.13;;;8.60;99.90;;;;;;4998105;28;20346;-50
2021/12/27 03:47:59;;;;;;;7.53;3.92;;;8.60;99.90;;;;;;4998331;28;20050;-50
2021/12/27 03:50:25;;;;;;;6.97;4.45;;;8.60;99.90;;;;;;5001107;28;20029;-50
2021/12/27 03:52:55;;;;;;;7.22;4.40;;;8.60;99.90;;;;;;5004099;28;20101;-50
2021/12/27 03:55:21;;;;;;;8.38;4.68;;;8.60;99.90;;;;;;5001746;28;20468;-48
2021/12/27 03:57:53;;;;;;;8.00;4.15;;;8.60;99.90;;;;;;4997377;28;20038;-48
2021/12/27 04:02:47;;;;;;;8.18;3.50;;;8.60;99.90;;;;;;5001013;28;20044;-50
2021/12/27 04:05:12;;;;;;;8.88;3.92;;;8.60;99.90;;;;;;4999521;28;20121;-50
2021/12/27 04:07:39;;;;;;;9.35;4.72;;;8.60;99.90;;;;;;5003259;28;20030;-50
2021/12/27 04:10:10;;;;;;;8.18;4.57;;;8.60;99.90;;;;;;4998216;28;20209;-49
2021/12/27 04:12:37;;;;;;;11.43;4.25;;;8.60;99.90;;;;;;5000256;28;20117;-50
2021/12/27 04:15:06;;;;;;;6.65;4.50;;;8.60;99.90;;;;;;5004024;28;20061;-50
2021/12/27 04:17:31;;;;;;;6.63;3.85;;;8.60;99.90;;;;;;5004422;28;20033;-50
2021/12/27 04:19:57;;;;;;;8.75;4.25;;;8.60;99.90;;;;;;4995143;28;20030;-50
2021/12/27 04:22:22;;;;;;;10.82;4.55;;;8.60;99.90;;;;;;5000534;28;20527;-50
2021/12/27 04:24:48;;;;;;;9.75;5.00;;;8.60;99.90;;;;;;5000778;28;20042;-50
2021/12/27 04:27:14;;;;;;;6.28;4.00;;;8.60;99.90;;;;;;4998564;28;20034;-50
2021/12/27 04:29:39;;;;;;;9.80;4.65;;;8.70;99.90;;;;;;5004106;28;20464;-50
2021/12/27 04:32:06;;;;;;;6.03;4.00;;;8.60;99.90;;;;;;5000935;28;20160;-50
2021/12/27 04:34:31;;;;;;;6.35;4.13;;;8.60;99.90;;;;;;5000679;28;20023;-50
2021/12/27 04:36:57;;;;;;;8.35;4.00;;;8.60;99.90;;;;;;4998997;28;20046;-50
2021/12/27 04:39:22;;;;;;;7.10;4.53;;;8.60;99.90;;;;;;5001820;28;20049;-50
2021/12/27 04:41:48;;;;;;;8.00;3.83;;;8.60;99.90;;;;;;4998994;28;20023;-49
2021/12/27 04:44:14;;;;;;;9.80;4.20;;;8.60;99.90;;;;;;5001757;28;20049;-50
2021/12/27 04:46:40;;;;;;;6.88;3.83;;;8.60;99.90;;;;;;4999713;28;20038;-50
2021/12/27 04:49:06;;;;;;;7.95;4.43;;;8.60;99.90;;;;;;4998609;28;20110;-50
2021/12/27 04:51:32;;;;;;;6.82;3.70;;;8.60;99.90;;;;;;4998024;28;20100;-50
2021/12/27 04:53:57;;;;;;;9.52;4.63;;;8.60;99.90;;;;;;4997343;28;20044;-50
2021/12/27 04:56:23;;;;;;;12.38;3.85;;;8.70;99.90;;;;;;5003992;28;20242;-50
2021/12/27 04:58:49;;;;;;;9.15;4.25;;;8.70;99.90;;;;;;5001198;28;20074;-50
2021/12/27 05:01:15;;;;;;;9.52;3.20;;;8.60;99.90;;;;;;4999092;28;20428;-50
2021/12/27 05:03:41;;;;;;;5.97;3.85;;;8.60;99.90;;;;;;5006252;28;20517;-50
2021/12/27 05:06:07;;;;;;;5.47;3.55;;;8.60;99.90;;;;;;5003901;28;20018;-50
2021/12/27 05:08:33;;;;;;;5.40;3.30;;;8.60;99.90;;;;;;5006792;28;20057;-50
2021/12/27 05:10:59;;;;;;;10.80;4.50;;;8.60;99.90;;;;;;5004622;28;20540;-50
2021/12/27 05:13:24;;;;;;;7.13;3.60;;;8.70;99.90;;;;;;4997656;28;20081;-50
2021/12/27 05:15:50;;;;;;;7.72;3.63;;;8.70;99.90;;;;;;5004144;28;20026;-50
2021/12/27 05:18:16;;;;;;;5.47;3.40;;;8.60;99.90;;;;;;5008488;28;20034;-50
2021/12/27 05:20:41;;;;;;;6.07;3.50;;;8.60;99.90;;;;;;5004811;28;20029;-50
2021/12/27 05:23:07;;;;;;;7.57;4.07;;;8.60;99.90;;;;;;5004338;28;20034;-50
2021/12/27 05:25:33;;;;;;;7.28;3.72;;;8.60;99.90;;;;;;5004732;28;20064;-50
2021/12/27 05:27:59;;;;;;;5.65;3.10;;;8.70;99.90;;;;;;5003828;28;20018;-50
2021/12/27 05:30:24;;;;;;;8.40;4.50;;;8.70;99.90;;;;;;5004526;28;20352;-50
2021/12/27 05:32:50;;;;;;;6.03;3.78;;;8.60;99.90;;;;;;5003107;28;20027;-50
2021/12/27 05:35:16;;;;;;;6.28;3.80;;;8.70;99.90;;;;;;5005751;28;20120;-49
2021/12/27 05:37:42;;;;;;;6.97;3.78;;;8.70;99.90;;;;;;5002811;28;20053;-50
2021/12/27 05:40:14;;;;;;;4.85;3.10;;;8.60;99.90;;;;;;5006536;28;20033;-50
2021/12/27 05:42:40;;;;;;;6.07;3.10;;;8.70;99.90;;;;;;5002625;28;20069;-50
2021/12/27 05:45:07;;;;;;;4.90;2.38;;;8.70;99.90;;;;;;5002299;28;20064;-50
2021/12/27 05:47:33;;;;;;;3.90;2.75;;;8.70;99.90;;;;;;5005020;28;20060;-50
2021/12/27 05:49:58;;;;;;;6.47;3.17;;;8.70;99.90;;;;;;5005048;28;20030;-50
2021/12/27 05:52:24;;;;;;;3.92;2.92;;;8.70;99.90;;;;;;5005334;28;20021;-50
2021/12/27 05:54:50;;;;;;;5.20;2.58;;;8.60;99.90;;;;;;5005449;28;20113;-50
2021/12/27 05:57:15;;;;;;;4.63;2.53;;;8.70;99.90;;;;;;5003221;28;20099;-50
2021/12/27 05:59:41;;;;;;;5.07;2.67;;;8.70;99.90;;;;;;5006056;28;20515;-50
2021/12/27 06:02:06;;;;;;;7.05;3.40;;;8.70;99.90;;;;;;5002061;28;20033;-50
2021/12/27 06:04:32;;;;;;;6.55;3.65;;;8.70;99.90;;;;;;5001760;28;20412;-50
2021/12/27 06:06:58;;;;;;;6.85;3.35;;;8.70;99.90;;;;;;5007085;28;20449;-50
2021/12/27 06:09:23;;;;;;;4.60;3.35;;;8.70;99.90;;;;;;5002928;28;20034;-49
2021/12/27 06:11:49;;;;;;;4.70;2.40;;;8.70;99.90;;;;;;5006097;28;20025;-50
2021/12/27 06:14:14;;;;;;;8.07;4.10;;;8.70;99.90;;;;;;5000012;28;20068;-50
2021/12/27 06:16:40;;;;;;;3.92;2.58;;;8.70;99.90;;;;;;5000505;28;20068;-49
2021/12/27 06:19:06;;;;;;;6.10;3.10;;;8.70;99.90;;;;;;5003454;28;20042;-49
2021/12/27 06:21:33;;;;;;;6.28;3.13;;;8.70;99.90;;;;;;5002139;28;20513;-50
2021/12/27 06:24:02;;;;;;;6.78;3.03;;;8.70;99.90;;;;;;5002193;28;20350;-50
2021/12/27 06:26:28;;;;;;;6.47;3.17;;;8.70;99.90;;;;;;5001678;28;20057;-50
2021/12/27 06:28:53;;;;;;;5.97;3.67;;;8.70;99.90;;;;;;5002042;28;20377;-49
2021/12/27 06:31:20;;;;;;;5.85;3.42;;;8.70;99.90;;;;;;5003748;28;20022;-50
2021/12/27 06:33:45;;;;;;;6.38;3.15;;;8.70;99.90;;;;;;5000690;28;20629;-50
2021/12/27 06:36:11;;;;;;;6.22;2.92;;;8.70;99.90;;;;;;5003258;28;20113;-48
2021/12/27 06:38:37;;;;;;;7.15;3.90;;;8.70;99.90;;;;;;5006222;28;20044;-48
2021/12/27 06:41:03;;;;;;;7.03;3.50;;;8.70;99.90;;;;;;5001188;28;20041;-47
2021/12/27 06:43:32;;;;;;;6.20;3.30;;;8.70;99.90;;;;;;5001174;28;20108;-47
2021/12/27 06:46:01;;;;;;;5.18;3.00;;;8.70;99.90;;;;;;5003122;28;20152;-48
2021/12/27 06:48:27;;;;;;;9.43;3.83;;;8.70;99.90;;;;;;5004268;28;20034;-48
2021/12/27 06:50:53;;;;;;;5.05;3.25;;;8.70;99.90;;;;;;5002420;28;20352;-49
2021/12/27 06:53:18;;;;;;;5.95;3.30;;;8.70;99.90;;;;;;5003540;28;20044;-50
2021/12/27 06:55:46;;;;;;;7.90;3.95;;;8.70;99.90;;;;;;5000379;28;20057;-50
2021/12/27 06:58:12;;;;;;;10.27;4.07;;;8.70;99.90;;;;;;5002496;28;20105;-50
2021/12/27 07:00:38;;;;;;;5.50;3.13;;;8.70;99.90;;;;;;5001428;28;20030;-49
2021/12/27 07:03:04;;;;;;;6.40;3.50;;;8.70;99.90;;;;;;5004278;28;20515;-50
2021/12/27 07:05:30;;;;;;;4.57;3.03;;;8.70;99.90;;;;;;5004188;28;20038;-49
2021/12/27 07:07:55;;;;;;;6.63;3.78;;;8.70;99.90;;;;;;5005405;28;20534;-50
2021/12/27 07:10:22;;;;;;;6.95;3.65;;;8.70;99.90;;;;;;5002818;28;20029;-50
2021/12/27 07:12:48;;;;;;;6.72;3.95;;;8.70;99.90;;;;;;5002324;28;20476;-50
2021/12/27 07:15:14;;;;;;;7.60;3.00;;;8.70;99.90;;;;;;4999244;28;20499;-50
2021/12/27 07:17:39;;;;;;;6.28;2.85;;;8.70;99.90;;;;;;5005192;28;20034;-50
2021/12/27 07:20:05;;;;;;;4.80;3.15;;;8.70;99.90;;;;;;5000595;28;20385;-50
2021/12/27 07:22:32;;;;;;;8.30;4.30;;;8.70;99.90;;;;;;5003769;28;20053;-50
2021/12/27 07:24:58;;;;;;;6.15;3.67;;;8.70;99.90;;;;;;5008059;28;20030;-50
2021/12/27 07:27:24;;;;;;;10.80;4.57;;;8.70;99.90;;;;;;5009981;28;20022;-50
2021/12/27 07:29:49;;;;;;;5.95;3.47;;;8.70;99.90;;;;;;5007438;28;20474;-50
2021/12/27 07:32:15;;;;;;;6.97;3.75;;;8.70;99.90;;;;;;5008276;28;20038;-50
2021/12/27 07:34:41;;;;;;;9.13;4.35;;;8.70;99.90;;;;;;5008960;28;20421;-50
2021/12/27 07:37:07;;;;;;;7.80;3.70;;;8.70;99.90;;;;;;5009446;28;20112;-50
2021/12/27 07:39:33;;;;;;;8.52;3.83;;;8.70;99.90;;;;;;5009588;28;20121;-50
2021/12/27 07:41:59;;;;;;;2.25;1.60;;;8.70;99.90;;;;;;5008793;28;20026;-51
2021/12/27 07:44:25;;;;;;;6.75;3.63;;;8.70;99.90;;;;;;5007012;28;20049;-50
2021/12/27 07:46:51;;;;;;;6.43;4.25;;;8.70;99.90;;;;;;5008746;28;20022;-50
2021/12/27 07:49:18;;;;;;;9.98;3.85;;;8.70;99.90;;;;;;5009089;28;20026;-51
2021/12/27 07:51:45;;;;;;;7.32;3.83;;;8.70;99.90;;;;;;5006820;28;20146;-50
2021/12/27 07:54:11;;;;;;;6.57;3.70;;;8.70;99.90;;;;;;5006475;28;20084;-50
2021/12/27 07:56:37;;;;;;;7.20;3.60;;;8.70;99.90;;;;;;5008921;28;20026;-50
2021/12/27 07:59:04;;;;;;;8.85;4.57;;;8.70;99.90;;;;;;5003489;28;20038;-50
2021/12/27 08:01:35;;;;;;;5.45;2.97;;;8.70;99.90;;;;;;5004114;28;20425;-50
2021/12/27 08:04:01;;;;;;;;;;;8.70;99.90;;;;;;5004810;28;20041;-50
2021/12/27 08:06:27;;;;;;;7.38;3.58;;;8.70;99.90;;;;;;5000645;28;19917;-50
2021/12/27 08:08:53;;;;;;;5.45;3.25;;;8.70;99.90;;;;;;4998464;28;20026;-50
2021/12/27 08:11:19;;;;;;;8.35;4.93;;;8.70;99.90;;;;;;5001926;28;20034;-50
2021/12/27 08:13:45;;;;;;;5.80;3.03;;;8.70;99.90;;;;;;5003202;28;20037;-48
2021/12/27 08:16:12;;;;;;;5.72;3.05;;;8.70;99.90;;;;;;5002078;28;20083;-49
2021/12/27 08:18:37;;;;;;;8.30;4.15;;;8.70;99.90;;;;;;4998238;28;20092;-50
2021/12/27 08:21:03;;;;;;;5.80;3.63;;;8.70;99.90;;;;;;5004260;28;20457;-50
2021/12/27 08:23:30;;;;;;;6.88;2.95;;;8.70;99.90;;;;;;5005823;28;20068;-50
2021/12/27 08:25:55;;;;;;;6.45;3.15;;;8.70;99.90;;;;;;4999784;28;20023;-50
2021/12/27 08:28:21;;;;;;;7.93;4.00;;;8.70;99.90;;;;;;5003069;28;20445;-50
2021/12/27 08:30:47;;;;;;;7.43;3.30;;;8.70;99.90;;;;;;4999309;28;20049;-50
2021/12/27 08:33:13;;;;;;;6.53;3.88;;;8.70;99.90;;;;;;5001119;28;20072;-50
2021/12/27 08:35:40;;;;;;;1.35;1.23;;;8.70;99.90;;;;;;5004891;28;20465;-50
2021/12/27 08:38:06;;;;;;;4.00;2.10;;;8.70;99.90;;;;;;5003866;28;20030;-50
2021/12/27 08:40:31;;;;;;;4.30;2.65;;;8.70;99.90;;;;;;5007754;28;20250;-50
2021/12/27 08:42:57;;;;;;;4.93;2.90;;;8.80;99.90;;;;;;5004857;28;20350;-50
2021/12/27 08:45:23;;;;;;;6.65;2.88;;;8.80;99.90;;;;;;5006121;28;20463;-50
2021/12/27 08:47:48;;;;;;;8.02;3.10;;;8.80;99.90;;;;;;5006606;28;20025;-50
2021/12/27 08:50:17;;;;;;;5.35;3.00;;;8.70;99.90;;;;;;5002392;28;20042;-50
2021/12/27 08:52:44;;;;;;;6.13;2.78;;;8.80;99.90;;;;;;5003795;28;20512;-50
2021/12/27 08:55:10;;;;;;;6.03;2.25;;;8.70;99.90;;;;;;5004855;28;20049;-50
2021/12/27 08:57:36;;;;;;;8.60;3.80;;;8.80;99.90;;;;;;5004838;28;20030;-50
2021/12/27 09:00:05;;;;;;;7.97;3.67;;;8.80;99.90;;;;;;5003213;28;20500;-50
2021/12/27 09:02:31;;;;;;;4.60;3.08;;;8.80;99.90;;;;;;4999322;28;20042;-50
2021/12/27 09:04:56;;;;;;;6.97;3.65;;;8.80;99.90;;;;;;5010893;28;20345;-50
2021/12/27 09:07:22;;;;;;;2.08;1.45;;;8.80;99.90;;;;;;5004456;28;20029;-50
2021/12/27 09:09:48;;;;;;;7.57;3.25;;;8.80;99.90;;;;;;5008130;28;20465;-50
2021/12/27 09:12:13;;;;;;;5.35;2.90;;;8.80;99.90;;;;;;5002277;28;20423;-51
2021/12/27 09:14:39;;;;;;;6.95;3.45;;;8.80;99.90;;;;;;5002679;28;20406;-50
2021/12/27 09:17:05;;;;;;;5.32;2.92;;;8.80;99.90;;;;;;5005991;28;20018;-53
2021/12/27 09:19:31;;;;;;;1.42;1.33;;;8.80;99.90;;;;;;5006909;28;20034;-50
2021/12/27 09:21:56;;;;;;;3.83;2.53;;;8.80;99.90;;;;;;5003919;28;20345;-50
2021/12/27 09:24:23;;;;;;;2.47;1.80;;;8.80;99.90;;;;;;5004969;28;20026;-50
2021/12/27 09:26:48;;;;;;;3.60;2.28;;;8.80;99.90;;;;;;5007702;28;20026;-50
2021/12/27 09:29:14;;;;;;;5.95;2.65;;;8.80;99.90;;;;;;5004544;28;20044;-50
2021/12/27 09:31:40;;;;;;;3.20;1.80;;;8.80;99.90;;;;;;5006623;28;20097;-50
2021/12/27 09:34:06;;;;;;;2.80;1.83;;;8.80;99.90;;;;;;5005899;28;20117;-51
2021/12/27 09:36:32;;;;;;;8.40;3.42;;;8.80;99.90;;;;;;5005084;28;20080;-50
2021/12/27 09:38:57;;;;;;;5.53;3.03;;;8.80;99.90;;;;;;5007014;28;20129;-50
2021/12/27 09:41:25;;;;;;;8.40;3.50;;;8.80;99.90;;;;;;5004729;28;20034;-50
2021/12/27 09:43:52;;;;;;;5.30;3.30;;;8.80;99.90;;;;;;5006829;28;20061;-50
2021/12/27 09:46:19;;;;;;;8.38;3.35;;;8.80;99.90;;;;;;5003758;28;20065;-50
2021/12/27 09:48:45;;;;;;;6.53;2.92;;;8.80;99.90;;;;;;5009061;28;20109;-50
2021/12/27 09:51:11;;;;;;;1.23;1.13;;;8.80;99.90;;;;;;5003228;28;20041;-50
2021/12/27 09:53:40;;;;;;;6.72;3.47;;;8.80;99.90;;;;;;5006128;28;20080;-50
2021/12/27 09:56:11;;;;;;;6.55;3.25;;;8.80;99.90;;;;;;5009282;28;20396;-50
2021/12/27 09:58:38;;;;;;;7.85;3.65;;;8.90;99.90;;;;;;4999063;28;20477;-50
2021/12/27 10:01:05;;;;;;;8.90;4.28;;;8.80;99.90;;;;;;5001084;28;20028;-50
2021/12/27 10:03:43;;;;;;;8.73;4.10;;;8.80;99.90;;;;;;4999589;28;20041;-50
2021/12/27 10:06:13;;;;;;;4.90;2.85;;;8.80;99.90;;;;;;5007720;28;20040;-50
2021/12/27 10:08:42;;;;;;;5.33;3.27;;;8.80;99.90;;;;;;5007763;28;20040;-50
2021/12/27 10:11:16;;;;;;;8.18;3.55;;;8.80;99.90;;;;;;5001121;28;20448;-50
2021/12/27 10:13:59;;;;;;;7.50;3.28;;;8.90;99.90;;;;;;5007317;28;20472;-50
2021/12/27 10:16:27;;;;;;;5.88;2.92;;;8.90;99.90;;;;;;5002468;28;20064;-50
2021/12/27 10:18:54;;;;;;;5.35;2.95;;;8.90;99.90;;;;;;5004421;28;20042;-50
2021/12/27 10:21:20;;;;;;;7.57;2.50;;;8.90;99.90;;;;;;5006103;28;20445;-50
2021/12/27 10:23:46;;;;;;;8.93;3.72;;;8.90;99.90;;;;;;5001601;28;20060;-50
2021/12/27 10:26:17;;;;;;;7.18;3.85;;;8.90;99.90;;;;;;5003540;28;20018;-50
2021/12/27 10:28:43;;;;;;;5.78;3.65;;;8.90;99.90;;;;;;5004185;28;20038;-50
2021/12/27 10:31:09;;;;;;;8.02;3.53;;;8.90;99.90;;;;;;5005291;28;20030;-51
2021/12/27 10:33:36;;;;;;;5.85;3.90;;;8.90;99.90;;;;;;5005051;28;20030;-50
2021/12/27 10:36:02;;;;;;;5.63;3.40;;;8.90;99.90;;;;;;5007875;28;20361;-50
2021/12/27 10:38:36;;;;;;;6.35;4.28;;;8.90;99.90;;;;;;5000836;28;20076;-50
2021/12/27 10:41:04;;;;;;;10.38;5.05;;;8.90;99.90;;;;;;5006946;28;20113;-50
2021/12/27 10:43:45;;;;;;;7.88;4.32;;;8.90;99.90;;;;;;5004016;28;20025;-50
2021/12/27 10:46:17;;;;;;;7.88;4.75;;;8.90;99.90;;;;;;5002333;28;20029;-50
2021/12/27 10:48:46;;;;;;;10.98;5.13;;;8.90;99.90;;;;;;5004199;28;20101;-50
2021/12/27 10:51:13;;;;;;;9.77;4.63;;;8.90;99.90;;;;;;5002641;28;20030;-50
2021/12/27 10:53:59;;;;;;;6.20;3.95;;;8.90;99.90;;;;;;5003927;28;20030;-50
2021/12/27 10:56:27;;;;;;;6.30;3.20;;;8.90;99.90;;;;;;5004637;28;20033;-50
2021/12/27 10:58:55;;;;;;;12.45;4.82;;;8.90;99.90;;;;;;5000928;28;20117;-50
2021/12/27 11:01:24;;;;;;;10.95;4.60;;;8.90;99.90;;;;;;5003213;28;20038;-50
2021/12/27 11:03:58;;;;;;;8.55;4.72;;;8.90;99.90;;;;;;5001983;28;20033;-49
2021/12/27 11:06:27;;;;;;;7.47;4.95;;;8.90;99.90;;;;;;5005578;28;20033;-50
2021/12/27 11:08:53;;;;;;;5.00;2.65;;;8.90;99.90;;;;;;5005147;28;20030;-50
2021/12/27 11:11:24;;;;;;;14.40;3.47;;;8.90;99.90;;;;;;5002645;28;20130;-50
2021/12/27 11:13:56;;;;;;;7.18;3.78;;;8.90;99.90;;;;;;5002097;28;20487;-50
2021/12/27 11:16:22;;;;;;;7.82;4.10;;;9.00;99.90;;;;;;4999820;28;20053;-50
2021/12/27 11:18:47;;;;;;;10.00;3.88;;;9.00;99.90;;;;;;5004280;28;20034;-50
2021/12/27 11:21:16;;;;;;;10.50;3.78;;;9.00;99.90;;;;;;5002868;28;20332;-50
2021/12/27 11:23:46;;;;;;;6.00;3.67;;;9.00;99.90;;;;;;5004890;28;20030;-50
2021/12/27 11:26:13;;;;;;;6.80;3.92;;;9.00;99.90;;;;;;5003530;28;20445;-50
2021/12/27 11:28:41;;;;;;;9.52;4.22;;;9.00;99.90;;;;;;5002324;28;20108;-49
2021/12/27 11:31:15;;;;;;;6.43;4.38;;;9.00;99.90;;;;;;4999566;28;20022;-50
2021/12/27 11:34:14;;;;;;;8.10;4.40;;;9.00;99.90;;;;;;4999673;28;20508;-50
2021/12/27 11:36:43;;;;;;;9.23;5.03;;;9.00;99.90;;;;;;4976194;28;20441;-49
2021/12/27 11:39:28;;;;;;;9.20;4.60;;;9.00;99.90;;;;;;4974158;28;20129;-50
2021/12/27 11:42:01;;;;;;;8.75;4.70;;;9.00;99.90;;;;;;4976701;28;20277;-50
2021/12/27 11:44:53;;;;;;;8.18;4.38;;;9.00;99.90;;;;;;4977557;28;20065;-50
2021/12/27 11:47:30;;;;;;;9.35;5.45;;;9.10;99.90;;;;;;4975581;28;20050;-50
2021/12/27 11:50:02;;;;;;;7.20;3.92;;;9.10;99.90;;;;;;4984488;28;20034;-50
2021/12/27 11:52:34;;;;;;;6.45;3.47;;;9.10;99.90;;;;;;4978604;28;20081;-50
2021/12/27 11:55:14;;;;;;;8.15;3.92;;;9.10;99.90;;;;;;4978564;28;20060;-50
2021/12/27 11:57:55;;;;;;;5.07;3.28;;;9.10;99.90;;;;;;4976949;28;20388;-50
2021/12/27 12:00:23;;;;;;;6.15;3.40;;;9.10;99.90;;;;;;4976573;28;20086;-50
2021/12/27 12:02:52;;;;;;;8.68;4.47;;;9.10;99.90;;;;;;4982607;28;20448;-49
2021/12/27 12:05:37;;;;;;;7.80;3.08;;;9.10;99.90;;;;;;4979424;28;20429;-50
2021/12/27 12:08:05;;;;;;;7.10;4.25;;;9.10;99.90;;;;;;4975358;28;20035;-51
2021/12/27 12:10:31;;;;;;;5.63;3.35;;;9.10;99.90;;;;;;4981948;28;20053;-50
2021/12/27 12:13:23;;;;;;;7.72;3.22;;;9.10;99.90;;;;;;4989004;28;20468;-50
2021/12/27 12:15:54;;;;;;;5.72;3.35;;;9.10;99.90;;;;;;5003340;28;20477;-50
2021/12/27 12:18:20;;;;;;;4.47;2.55;;;9.10;99.90;;;;;;5002035;28;20451;-50
2021/12/27 12:20:46;;;;;;;7.53;3.85;;;9.10;99.90;;;;;;5004710;28;20022;-50
2021/12/27 12:23:11;;;;;;;5.20;3.47;;;9.10;99.90;;;;;;5002826;28;20048;-50
2021/12/27 12:25:38;;;;;;;3.35;2.83;;;9.10;99.90;;;;;;4999299;28;20030;-50
2021/12/27 12:28:14;;;;;;;3.42;2.50;;;9.10;99.90;;;;;;5002815;28;20026;-50
2021/12/27 12:30:49;;;;;;;3.28;2.20;;;9.10;99.90;;;;;;5000199;28;20037;-50
2021/12/27 12:33:27;;;;;;;3.58;2.67;;;9.10;99.90;;;;;;4998509;28;20041;-50
2021/12/27 12:35:59;;;;;;;5.07;2.58;;;9.10;99.90;;;;;;5003556;28;20034;-50
2021/12/27 12:38:32;;;;;;;6.43;2.72;;;9.10;99.90;;;;;;5000735;28;20406;-50
2021/12/27 12:41:06;;;;;;;5.50;2.70;;;9.10;99.90;;;;;;5006799;28;20076;-50
2021/12/27 12:43:57;;;;;;;4.78;2.50;;;9.10;99.90;;;;;;5001450;28;20033;-50
2021/12/27 12:46:29;;;;;;;5.78;3.20;;;9.10;99.90;;;;;;5000664;28;20038;-50
2021/12/27 12:49:12;;;;;;;5.22;2.80;;;9.10;99.90;;;;;;5003393;28;21086;-50
2021/12/27 12:51:52;;;;;;;3.75;2.78;;;9.10;99.90;;;;;;4999682;28;20025;-50
2021/12/27 12:54:23;;;;;;;4.53;2.95;;;9.20;99.90;;;;;;5002083;28;20026;-50
2021/12/27 12:56:56;;;;;;;5.28;2.47;;;9.20;99.90;;;;;;5000813;28;20449;-50
2021/12/27 12:59:32;;;;;;;5.65;2.88;;;9.10;99.90;;;;;;5004446;28;20038;-50
2021/12/27 13:02:12;;;;;;;5.10;2.92;;;9.20;99.90;;;;;;4995591;28;20573;-50